Inda, Mississippi
Current Conditions -  °F | °C
As of 5:53 PM on Friday 24 Oct 2014 (Local Time) from KGPT Reporting Station
Clear Clear  
Wind Chill: 73°   Ceiling: Unl
Heat Index: 73°   Visibility: 10mi
Dew Point: 46°   Wind: 7mph
Humidity: 38%   Direction: 350°N
Pressure: 30.03"   Gusts: NA
Location:  30.7239°N, 89.1669°W
Report Text: KGPT 242253Z 35006KT 10SM CLR 23/08 A3003 RMK AO2 SLP169 T02280078
Loading
Personal Weather Stations






























Interactive Weather Map
Tropical Storm Tracking
New forecast layout! Learn more

10-Day Weather Forecast

Advertisements
Track Severe Weather on mobile